Belview, Minnesota
Current Conditions -  °F | °C
As of 8:53 PM on Thursday 18 Dec 2014 (Local Time) from KRWF Reporting Station
Overcast Overcast  
Wind Chill: 14°   Ceiling: 3800
Heat Index: 23°   Visibility: 9mi
Dew Point: 18°   Wind: 8mph
Humidity: 81%   Direction: 130°SE
Pressure: 30.23"   Gusts: NA
Location:  44.61°N, 95.33°W
Report Text: KRWF 190253Z AUTO 13007KT 9SM BKN038 BKN055 OVC075 M05/M08 A3023 RMK AO2 SLP256 T10501078 55002
Loading
Personal Weather Stations






























Interactive Weather Map New forecast layout! Learn more

10-Day Weather Forecast

Advertisements
Track Severe Weather on mobile